Time;durP1;ratioP1;P1;durP2;ratioP2;P2;SDS_P1;SDS_P2;PMS_P1;PMS_P2;Temp;Humidity;BMP_temperature;BMP_pressure;BME280_temperature;BME280_humidity;BME280_pressure;Samples;Min_cycle;Max_cycle;Signal;HPM_P1;HPM_P2
2022/06/14 00:01:39;;;;;;;3.53;1.80;;;14.50;99.90;;;;;;6246886;22;20403;-81
2022/06/14 00:04:05;;;;;;;6.50;2.00;;;14.40;99.90;;;;;;6219716;23;20154;-83
2022/06/14 00:06:32;;;;;;;5.40;2.87;;;14.40;99.90;;;;;;6219270;23;20189;-83
2022/06/14 00:08:58;;;;;;;7.03;3.00;;;14.40;99.90;;;;;;6247585;23;20152;-82
2022/06/14 00:11:28;;;;;;;3.90;1.90;;;14.30;99.90;;;;;;6219543;23;20748;-81
2022/06/14 00:13:54;;;;;;;4.13;1.87;;;14.30;99.90;;;;;;6219867;23;20498;-82
2022/06/14 00:16:25;;;;;;;6.13;2.30;;;14.20;99.90;;;;;;6245822;23;20392;-81
2022/06/14 00:18:51;;;;;;;3.57;1.60;;;14.20;99.90;;;;;;6247076;23;20353;-84
2022/06/14 00:21:17;;;;;;;6.70;2.17;;;14.20;99.90;;;;;;6219709;23;20392;-81
2022/06/14 00:23:42;;;;;;;6.30;2.60;;;14.10;99.90;;;;;;6220175;23;20179;-82
2022/06/14 00:26:17;;;;;;;6.60;2.80;;;14.10;99.90;;;;;;6220663;23;20453;-84
2022/06/14 00:28:44;;;;;;;8.33;2.10;;;14.10;99.90;;;;;;6247438;23;20144;-81
2022/06/14 00:31:16;;;;;;;4.40;2.50;;;14.00;99.90;;;;;;6248255;23;20400;-81
2022/06/14 00:33:42;;;;;;;9.53;2.93;;;14.00;99.90;;;;;;6222838;23;20733;-81
2022/06/14 00:36:21;;;;;;;6.40;2.17;;;14.00;99.90;;;;;;6248410;23;20375;-82
2022/06/14 00:38:47;;;;;;;7.47;2.60;;;13.90;99.90;;;;;;6222406;23;20383;-84
2022/06/14 00:41:42;;;;;;;8.60;2.87;;;13.90;99.90;;;;;;6248625;23;20875;-84
2022/06/14 00:44:14;;;;;;;8.37;2.60;;;13.90;99.90;;;;;;6222467;23;20384;-81
2022/06/14 00:46:59;;;;;;;6.30;2.17;;;13.90;99.90;;;;;;6248475;23;20357;-83
2022/06/14 00:49:31;;;;;;;9.17;2.70;;;13.90;99.90;;;;;;6222864;23;20384;-84
2022/06/14 00:52:05;;;;;;;10.60;2.30;;;13.90;99.90;;;;;;6221947;22;20410;-81
2022/06/14 00:54:36;;;;;;;9.20;2.83;;;13.90;99.90;;;;;;6248962;23;20383;-81
2022/06/14 00:57:27;;;;;;;8.30;2.40;;;13.80;99.90;;;;;;6221587;23;20392;-84
2022/06/14 00:59:52;;;;;;;5.20;2.63;;;13.80;99.90;;;;;;6249258;23;20378;-82
2022/06/14 01:02:26;;;;;;;12.17;2.60;;;13.80;99.90;;;;;;6247202;22;20490;-83
2022/06/14 01:04:54;;;;;;;8.03;2.53;;;13.70;99.90;;;;;;6222069;23;20203;-81
2022/06/14 01:07:19;;;;;;;10.50;3.10;;;13.70;99.90;;;;;;6221290;23;20798;-81
2022/06/14 01:09:56;;;;;;;4.97;2.43;;;13.70;99.90;;;;;;6222203;23;20388;-81
2022/06/14 01:12:26;;;;;;;6.73;3.27;;;13.60;99.90;;;;;;6248552;22;20505;-83
2022/06/14 01:15:21;;;;;;;9.57;2.97;;;13.60;99.90;;;;;;6221567;23;20383;-81
2022/06/14 01:17:51;;;;;;;6.07;2.40;;;13.60;99.90;;;;;;6248341;23;20392;-81
2022/06/14 01:20:20;;;;;;;7.63;2.70;;;13.60;99.90;;;;;;6222221;23;20383;-81
2022/06/14 01:22:50;;;;;;;5.73;2.70;;;13.50;99.90;;;;;;6220730;23;20426;-83
2022/06/14 01:25:16;;;;;;;4.27;2.67;;;13.50;99.90;;;;;;6221854;23;20450;-81
2022/06/14 01:27:42;;;;;;;8.43;2.90;;;13.50;99.90;;;;;;6248723;23;20414;-81
2022/06/14 01:30:15;;;;;;;7.40;2.20;;;13.40;99.90;;;;;;6222217;23;20441;-81
2022/06/14 01:33:05;;;;;;;10.03;3.97;;;13.40;99.90;;;;;;6220899;23;20438;-82
2022/06/14 01:35:37;;;;;;;4.83;2.80;;;13.40;99.90;;;;;;6247903;23;20410;-82
2022/06/14 01:38:09;;;;;;;5.20;2.70;;;13.40;99.90;;;;;;6248196;23;20435;-82
2022/06/14 01:40:51;;;;;;;7.53;3.30;;;13.30;99.90;;;;;;6221413;23;20383;-82
2022/06/14 01:43:40;;;;;;;4.30;2.73;;;13.30;99.90;;;;;;6248169;22;20391;-82
2022/06/14 01:46:19;;;;;;;8.63;3.90;;;13.20;99.90;;;;;;6247860;23;20423;-81
2022/06/14 01:52:17;;;;;;;7.83;3.60;;;13.10;99.90;;;;;;6248723;22;20396;-82
2022/06/14 01:55:01;;;;;;;6.93;3.33;;;13.00;99.90;;;;;;6248224;23;20360;-81
2022/06/14 01:57:30;;;;;;;5.53;3.80;;;13.00;99.90;;;;;;6247358;23;20352;-82
2022/06/14 02:00:10;;;;;;;8.07;4.10;;;13.00;99.90;;;;;;6221426;23;20414;-83
2022/06/14 02:06:34;;;;;;;4.90;2.90;;;12.90;99.90;;;;;;6248171;23;20794;-86
2022/06/14 02:09:18;;;;;;;6.60;3.20;;;12.80;99.90;;;;;;6216409;23;20438;-81
2022/06/14 02:11:43;;;;;;;6.70;3.43;;;12.80;99.90;;;;;;6247729;22;20348;-82
2022/06/14 02:14:39;;;;;;;5.10;2.83;;;12.80;99.90;;;;;;6221429;23;20437;-83
2022/06/14 02:17:17;;;;;;;8.57;3.40;;;12.80;99.90;;;;;;6221846;23;20156;-83
2022/06/14 02:19:48;;;;;;;7.27;3.33;;;12.80;99.90;;;;;;6221595;23;20372;-83
2022/06/14 02:22:19;;;;;;;4.13;2.83;;;12.70;99.90;;;;;;6247866;22;20917;-83
2022/06/14 02:25:00;;;;;;;8.07;3.50;;;12.70;99.90;;;;;;6221466;23;20428;-83
2022/06/14 02:27:51;;;;;;;15.40;3.93;;;12.70;99.90;;;;;;6225767;23;20389;-83
2022/06/14 02:30:23;;;;;;;5.60;3.70;;;12.70;99.90;;;;;;6255021;23;20410;-85
2022/06/14 02:33:15;;;;;;;9.00;4.00;;;12.60;99.90;;;;;;6231114;23;20928;-82
2022/06/14 02:35:58;;;;;;;9.33;4.10;;;12.60;99.90;;;;;;6254976;23;21033;-81
2022/06/14 02:38:54;;;;;;;9.23;3.40;;;12.50;99.90;;;;;;6225955;23;20447;-82
2022/06/14 02:41:35;;;;;;;8.40;3.67;;;12.50;1.00;;;;;;6188766;23;20924;-84
2022/06/14 02:44:14;;;;;;;10.50;3.70;;;12.50;1.00;;;;;;6220268;23;20426;-83
2022/06/14 02:46:55;;;;;;;9.93;4.53;;;12.40;1.00;;;;;;6248116;23;20364;-83
2022/06/14 02:49:37;;;;;;;13.47;4.60;;;12.40;1.00;;;;;;6220095;23;20414;-83
2022/06/14 02:52:31;;;;;;;10.70;4.07;;;12.40;1.00;;;;;;6220442;23;20866;-82
2022/06/14 02:55:07;;;;;;;12.13;4.10;;;12.40;1.00;;;;;;6220879;23;20415;-83
2022/06/14 02:57:40;;;;;;;11.70;3.80;;;12.40;1.00;;;;;;6247268;23;20442;-82
2022/06/14 03:00:13;;;;;;;8.20;3.70;;;12.40;1.00;;;;;;6220349;23;20376;-82
2022/06/14 03:02:57;;;;;;;11.20;3.73;;;12.40;1.00;;;;;;6219983;23;20715;-83
2022/06/14 03:05:37;;;;;;;4.93;3.13;;;12.40;1.00;;;;;;6220680;23;20884;-84
2022/06/14 03:08:19;;;;;;;5.93;3.70;;;12.40;1.00;;;;;;6246580;23;20403;-82
2022/06/14 03:11:06;;;;;;;7.90;4.17;;;12.40;1.00;;;;;;6247373;23;20352;-82
2022/06/14 03:13:44;;;;;;;7.20;3.77;;;12.30;1.00;;;;;;6219680;23;20406;-82
2022/06/14 03:16:19;;;;;;;7.20;4.00;;;12.40;1.00;;;;;;6246311;23;20452;-87
2022/06/14 03:19:00;;;;;;;11.50;4.23;;;12.40;1.00;;;;;;6247008;23;20414;-83
2022/06/14 03:21:43;;;;;;;9.03;3.70;;;12.40;1.00;;;;;;6220765;23;20379;-83
2022/06/14 03:24:27;;;;;;;8.10;3.70;;;12.40;1.00;;;;;;6220159;23;20450;-81
2022/06/14 03:27:12;;;;;;;11.77;4.70;;;12.40;1.00;;;;;;6247174;23;20375;-82
2022/06/14 03:30:05;;;;;;;7.37;4.83;;;12.30;1.00;;;;;;6219975;23;20404;-86
2022/06/14 03:32:59;;;;;;;10.87;5.67;;;12.30;1.00;;;;;;6219476;23;20407;-82
2022/06/14 03:35:32;;;;;;;13.37;4.40;;;12.20;55.70;;;;;;6220046;23;20376;-83
2022/06/14 03:38:04;;;;;;;7.60;3.90;;;12.20;2.10;;;;;;6246175;23;20364;-82
2022/06/14 03:40:30;;;;;;;5.70;4.00;;;12.20;1.00;;;;;;6247265;23;20826;-82
2022/06/14 03:42:56;;;;;;;10.27;3.57;;;12.20;1.00;;;;;;6220270;23;20462;-83
2022/06/14 03:45:34;;;;;;;8.20;3.53;;;12.30;1.00;;;;;;6247448;23;20415;-82
2022/06/14 03:47:59;;;;;;;4.53;3.50;;;12.30;1.00;;;;;;6219835;23;20379;-83
2022/06/14 03:50:33;;;;;;;6.57;3.07;;;12.30;1.00;;;;;;6247658;23;20866;-82
2022/06/14 03:53:07;;;;;;;11.87;4.00;;;12.40;1.00;;;;;;6247832;22;20184;-84
2022/06/14 03:56:06;;;;;;;8.80;4.97;;;12.30;1.00;;;;;;6248093;23;20356;-82
2022/06/14 03:58:50;;;;;;;8.40;4.27;;;12.30;1.00;;;;;;6220085;23;20392;-82
2022/06/14 04:01:20;;;;;;;11.53;4.60;;;12.30;1.00;;;;;;6248389;23;20368;-82
2022/06/14 04:04:01;;;;;;;7.20;4.00;;;12.30;1.00;;;;;;6246959;22;20845;-83
2022/06/14 04:06:59;;;;;;;11.20;4.67;;;12.30;1.00;;;;;;6247846;23;20382;-82
2022/06/14 04:09:48;;;;;;;13.57;4.57;;;12.40;1.00;;;;;;6187251;23;20412;-83
2022/06/14 04:12:17;;;;;;;7.63;4.00;;;12.40;1.00;;;;;;6222360;23;20407;-82
2022/06/14 04:14:50;;;;;;;21.97;5.03;;;12.40;1.00;;;;;;6248384;23;20372;-84
2022/06/14 04:17:38;;;;;;;10.73;4.27;;;12.40;1.00;;;;;;6222279;23;20418;-83
2022/06/14 04:20:24;;;;;;;6.13;4.70;;;12.40;1.00;;;;;;6221629;23;20885;-83
2022/06/14 04:22:53;;;;;;;12.37;5.27;;;12.50;1.00;;;;;;6222662;23;20920;-82
2022/06/14 04:25:37;;;;;;;11.33;7.10;;;12.60;1.00;;;;;;6249292;23;20415;-83
2022/06/14 04:28:06;;;;;;;12.40;4.87;;;12.60;1.00;;;;;;6249229;23;20356;-83
2022/06/14 04:30:45;;;;;;;12.90;5.40;;;12.70;1.00;;;;;;6222237;23;20426;-83
2022/06/14 04:33:20;;;;;;;10.50;5.03;;;12.80;1.00;;;;;;6222700;23;20434;-83
2022/06/14 04:36:01;;;;;;;12.77;5.20;;;12.80;1.00;;;;;;6222710;23;20411;-82
2022/06/14 04:39:25;;;;;;;9.50;5.53;;;12.90;1.00;;;;;;6250397;23;20364;-82
2022/06/14 04:42:11;;;;;;;11.13;5.00;;;13.00;1.00;;;;;;6191953;22;20384;-84
2022/06/14 04:44:44;;;;;;;9.70;5.57;;;13.10;1.00;;;;;;6248091;23;20415;-82
2022/06/14 04:47:31;;;;;;;12.90;5.93;;;13.20;1.00;;;;;;6221389;23;20388;-83
2022/06/14 04:50:19;;;;;;;11.97;4.90;;;13.30;1.00;;;;;;6248625;23;20755;-83
2022/06/14 04:52:58;;;;;;;12.10;5.33;;;13.40;1.00;;;;;;6222492;23;20404;-83
2022/06/14 04:55:32;;;;;;;12.30;5.77;;;13.40;1.00;;;;;;6248816;23;20432;-83
2022/06/14 04:58:09;;;;;;;7.13;5.03;;;13.50;1.00;;;;;;6222313;23;20411;-82
2022/06/14 05:00:42;;;;;;;12.47;5.70;;;13.60;1.00;;;;;;6220948;23;20423;-81
2022/06/14 05:03:11;;;;;;;9.83;5.10;;;13.70;1.00;;;;;;6250305;22;20783;-83
2022/06/14 05:05:42;;;;;;;12.20;6.47;;;13.80;1.00;;;;;;6221650;23;20427;-82
2022/06/14 05:08:29;;;;;;;12.77;7.87;;;13.80;1.00;;;;;;6248046;23;20482;-82
2022/06/14 05:11:03;;;;;;;12.30;6.77;;;13.90;1.00;;;;;;6248188;23;20390;-83
2022/06/14 05:13:44;;;;;;;17.37;9.93;;;14.00;1.00;;;;;;6249099;22;20397;-81
2022/06/14 05:16:23;;;;;;;13.00;9.27;;;14.10;1.00;;;;;;6220702;23;20416;-84
2022/06/14 05:18:55;;;;;;;18.37;7.63;;;14.20;1.00;;;;;;6221384;23;20388;-83
2022/06/14 05:21:28;;;;;;;19.30;8.70;;;14.30;1.00;;;;;;6221296;23;20853;-82
2022/06/14 05:23:56;;;;;;;17.10;7.13;;;14.40;1.00;;;;;;6220329;23;20455;-82
2022/06/14 05:26:48;;;;;;;12.83;7.20;;;14.50;1.00;;;;;;6219932;23;20744;-82
2022/06/14 05:29:26;;;;;;;16.17;6.43;;;14.60;1.00;;;;;;6219156;23;20438;-83
2022/06/14 05:32:02;;;;;;;11.60;6.27;;;14.70;1.00;;;;;;6220066;22;20449;-83
2022/06/14 05:34:59;;;;;;;13.10;6.27;;;14.90;1.00;;;;;;6247459;23;20420;-83
2022/06/14 05:37:49;;;;;;;17.90;5.90;;;15.00;1.00;;;;;;6220921;23;20382;-83
2022/06/14 05:40:49;;;;;;;10.73;5.67;;;15.20;99.90;;;;;;6220522;23;20390;-84
2022/06/14 05:43:29;;;;;;;14.50;6.00;;;15.40;99.90;;;;;;6220049;23;20517;-82
2022/06/14 05:46:07;;;;;;;14.23;7.00;;;15.70;99.90;;;;;;6221571;23;20514;-83
2022/06/14 05:48:43;;;;;;;13.23;6.20;;;15.80;99.90;;;;;;6247973;23;20354;-84
2022/06/14 05:51:11;;;;;;;16.10;6.60;;;16.00;99.90;;;;;;6247633;23;20359;-82
2022/06/14 05:53:37;;;;;;;13.37;6.17;;;16.10;99.90;;;;;;6221009;23;20416;-82
2022/06/14 05:56:20;;;;;;;11.93;5.33;;;16.30;99.90;;;;;;6247333;23;20433;-83
2022/06/14 05:59:09;;;;;;;10.77;6.30;;;16.40;99.90;;;;;;6222524;23;20160;-83
2022/06/14 06:01:45;;;;;;;9.83;4.30;;;16.60;99.90;;;;;;6249673;23;20425;-82
2022/06/14 06:04:20;;;;;;;14.33;5.27;;;16.70;99.90;;;;;;6249537;23;20365;-83
2022/06/14 06:07:01;;;;;;;10.50;5.43;;;16.90;99.90;;;;;;6222180;23;20403;-83
2022/06/14 06:09:33;;;;;;;11.13;4.80;;;17.30;99.90;;;;;;6249237;23;20379;-83
2022/06/14 06:12:09;;;;;;;12.87;5.83;;;17.80;99.90;;;;;;6249433;22;20394;-83
2022/06/14 06:14:39;;;;;;;8.97;5.67;;;18.80;99.90;;;;;;6223603;23;20383;-83
2022/06/14 06:17:13;;;;;;;10.40;5.13;;;21.60;99.90;;;;;;6222923;23;20407;-84
2022/06/14 06:20:06;;;;;;;8.97;5.07;;;26.60;99.90;;;;;;6224497;23;20373;-84
2022/06/14 06:22:52;;;;;;;13.80;5.50;;;31.10;99.90;;;;;;6225360;23;20851;-84
2022/06/14 06:25:32;;;;;;;11.20;4.90;;;34.40;99.90;;;;;;6253225;23;20458;-82
2022/06/14 06:28:05;;;;;;;9.80;4.77;;;37.40;99.90;;;;;;6253678;23;20390;-83
2022/06/14 06:30:43;;;;;;;9.13;4.53;;;39.60;99.90;;;;;;6227879;23;20376;-83
2022/06/14 06:33:15;;;;;;;5.57;4.07;;;41.70;99.90;;;;;;6230864;23;20411;-82
2022/06/14 06:35:47;;;;;;;9.53;4.10;;;42.80;99.90;;;;;;6224727;23;20423;-81
2022/06/14 06:38:49;;;;;;;8.60;4.23;;;43.10;99.90;;;;;;6250221;23;20410;-83
2022/06/14 06:44:33;;;;;;;7.83;3.27;;;45.40;99.90;;;;;;6095235;23;20388;-82
2022/06/14 06:47:13;;;;;;;11.33;3.80;;;46.60;99.90;;;;;;6095264;23;20762;-83
2022/06/14 06:50:19;;;;;;;11.63;5.17;;;47.70;99.90;;;;;;6164003;23;20470;-83
2022/06/14 06:52:59;;;;;;;7.57;3.20;;;48.50;99.90;;;;;;6138855;23;20803;-82
2022/06/14 06:55:43;;;;;;;10.83;3.93;;;48.10;99.90;;;;;;6218923;23;20772;-82
2022/06/14 06:58:16;;;;;;;5.33;3.47;;;47.30;99.90;;;;;;6246101;23;20359;-83
2022/06/14 07:00:44;;;;;;;6.03;3.30;;;47.60;99.90;;;;;;6218562;23;20379;-82
2022/06/14 07:03:19;;;;;;;10.43;3.20;;;49.00;99.90;;;;;;6245124;22;20391;-83
2022/06/14 07:05:49;;;;;;;5.40;3.00;;;51.00;99.90;;;;;;6217929;23;20382;-83
2022/06/14 07:08:23;;;;;;;5.05;3.05;;;52.90;99.90;;;;;;6244393;23;20175;-83
2022/06/14 07:10:53;;;;;;;8.63;3.50;;;54.60;99.90;;;;;;6217587;23;20156;-83
2022/06/14 07:13:27;;;;;;;7.65;2.80;;;55.40;99.90;;;;;;6218629;23;20180;-83
2022/06/14 07:16:09;;;;;;;9.70;3.90;;;55.80;99.90;;;;;;6218396;23;20598;-83
2022/06/14 07:18:46;;;;;;;7.43;3.00;;;55.60;99.90;;;;;;6219115;23;20579;-83
2022/06/14 07:21:24;;;;;;;5.07;2.97;;;56.00;99.90;;;;;;6244802;23;20231;-83
2022/06/14 07:24:10;;;;;;;5.97;3.72;;;56.60;99.90;;;;;;6217617;23;20222;-83
2022/06/14 07:26:42;;;;;;;6.97;3.63;;;56.90;99.90;;;;;;6217228;23;20605;-83
2022/06/14 07:29:32;;;;;;;5.75;3.20;;;57.10;99.90;;;;;;6244049;23;20521;-83
2022/06/14 07:32:29;;;;;;;12.05;3.90;;;58.00;99.70;;;;;;6216808;22;20182;-84
2022/06/14 07:34:55;;;;;;;7.18;2.92;;;58.20;98.60;;;;;;6244669;23;20139;-83
2022/06/14 07:37:36;;;;;;;4.43;2.72;;;58.10;97.00;;;;;;6244109;23;20144;-84
2022/06/14 07:40:10;;;;;;;8.32;3.33;;;58.90;97.30;;;;;;6217409;23;20207;-85
2022/06/14 07:43:03;;;;;;;4.70;3.00;;;59.20;96.30;;;;;;6217295;23;20179;-84
2022/06/14 07:45:39;;;;;;;8.80;3.30;;;56.30;88.50;;;;;;6217486;23;20176;-82
2022/06/14 07:48:31;;;;;;;6.70;3.47;;;47.90;57.30;;;;;;6223448;23;20386;-82
2022/06/14 07:51:00;;;;;;;9.67;4.07;;;42.00;45.40;;;;;;6228351;23;20522;-82
2022/06/14 07:53:47;;;;;;;7.10;3.17;;;40.90;48.80;;;;;;6248337;22;20399;-82
2022/06/14 07:56:20;;;;;;;7.37;3.33;;;46.40;67.90;;;;;;6243229;23;20363;-83
2022/06/14 07:58:55;;;;;;;5.00;2.30;;;49.90;79.80;;;;;;6218846;23;20466;-82
2022/06/14 08:01:32;;;;;;;11.47;2.90;;;52.00;85.90;;;;;;6218379;23;20144;-82
2022/06/14 08:04:19;;;;;;;4.65;2.28;;;53.50;89.00;;;;;;6245132;22;20179;-82
2022/06/14 08:07:03;;;;;;;6.00;3.95;;;55.00;90.80;;;;;;6244660;23;20168;-83
2022/06/14 08:09:52;;;;;;;8.00;2.97;;;54.60;87.80;;;;;;6218060;23;20240;-83
2022/06/14 08:12:29;;;;;;;5.70;2.60;;;54.50;84.80;;;;;;6216956;23;20176;-83
2022/06/14 08:15:10;;;;;;;5.70;2.43;;;54.20;82.10;;;;;;6245218;23;20145;-83
2022/06/14 08:17:54;;;;;;;4.30;2.17;;;53.20;77.30;;;;;;6244131;23;20132;-84
2022/06/14 08:20:42;;;;;;;4.03;1.80;;;53.50;77.60;;;;;;6244516;23;20169;-85
2022/06/14 08:23:32;;;;;;;7.37;2.97;;;53.70;77.50;;;;;;6217714;23;20178;-83
2022/06/14 08:26:14;;;;;;;4.00;2.10;;;53.40;74.40;;;;;;6217968;23;20176;-82
2022/06/14 08:29:08;;;;;;;5.87;2.50;;;51.30;66.00;;;;;;6218069;23;20378;-83
2022/06/14 08:31:49;;;;;;;5.93;2.23;;;50.70;63.50;;;;;;6244897;23;20371;-82
2022/06/14 08:34:25;;;;;;;5.90;2.00;;;51.40;65.70;;;;;;6244524;23;20383;-83
2022/06/14 08:36:59;;;;;;;8.27;3.00;;;51.90;68.40;;;;;;6217612;23;20459;-84
2022/06/14 08:39:37;;;;;;;5.43;1.80;;;52.00;67.10;;;;;;6218033;23;20381;-83
2022/06/14 08:42:19;;;;;;;6.27;2.10;;;51.80;65.20;;;;;;6244840;22;20861;-83
2022/06/14 08:44:56;;;;;;;5.10;2.17;;;52.00;65.70;;;;;;6244663;23;20428;-84
2022/06/14 08:47:56;;;;;;;4.53;1.80;;;52.40;65.80;;;;;;6244114;23;20809;-83
2022/06/14 08:50:30;;;;;;;4.67;2.00;;;52.70;65.40;;;;;;6218333;23;20434;-84
2022/06/14 08:53:26;;;;;;;6.10;2.20;;;52.70;64.10;;;;;;6246383;22;20391;-84
2022/06/14 08:56:10;;;;;;;3.23;1.80;;;52.40;62.60;;;;;;6219262;23;20387;-83
2022/06/14 08:58:41;;;;;;;4.97;1.90;;;52.40;61.60;;;;;;6246395;23;20371;-84
2022/06/14 09:01:16;;;;;;;5.20;2.83;;;52.30;60.50;;;;;;6219386;23;20376;-83
2022/06/14 09:03:57;;;;;;;3.13;1.70;;;52.00;58.40;;;;;;6219526;23;20410;-84
2022/06/14 09:06:33;;;;;;;5.90;2.23;;;51.50;58.40;;;;;;6219365;23;20516;-84
2022/06/14 09:09:33;;;;;;;4.30;1.77;;;51.40;56.30;;;;;;6246611;23;20394;-83
2022/06/14 09:12:18;;;;;;;4.77;2.43;;;51.40;56.40;;;;;;6219530;22;20406;-83
2022/06/14 09:14:59;;;;;;;8.20;2.33;;;51.40;56.50;;;;;;6219465;23;20383;-84
2022/06/14 09:18:00;;;;;;;4.00;1.73;;;50.80;54.80;;;;;;6219087;23;20798;-83
2022/06/14 09:21:11;;;;;;;6.00;2.30;;;50.60;53.50;;;;;;6245532;23;20468;-83
2022/06/14 09:23:58;;;;;;;6.00;2.20;;;50.80;54.50;;;;;;6210233;23;20411;-85
2022/06/14 09:26:44;;;;;;;7.10;2.03;;;50.60;53.20;;;;;;6219047;23;20426;-83
2022/06/14 09:29:31;;;;;;;4.17;2.30;;;50.80;53.90;;;;;;6219718;23;20845;-83
2022/06/14 09:32:15;;;;;;;4.30;2.00;;;50.50;52.80;;;;;;6246428;22;20391;-83
2022/06/14 09:35:20;;;;;;;5.07;2.37;;;50.20;52.10;;;;;;6219104;23;20407;-83
2022/06/14 09:38:17;;;;;;;7.73;2.47;;;49.40;50.40;;;;;;6219063;23;20506;-83
2022/06/14 09:41:07;;;;;;;6.70;2.73;;;48.90;49.00;;;;;;6246374;23;20388;-83
2022/06/14 09:43:43;;;;;;;7.00;2.40;;;49.00;49.10;;;;;;6218952;23;20426;-83
2022/06/14 09:46:37;;;;;;;6.93;2.63;;;49.00;50.30;;;;;;6218987;23;20461;-84
2022/06/14 09:49:17;;;;;;;6.90;3.00;;;49.00;50.20;;;;;;6219228;23;20433;-83
2022/06/14 09:51:48;;;;;;;6.00;2.83;;;48.60;48.20;;;;;;6245939;22;20378;-84
2022/06/14 09:54:35;;;;;;;8.50;3.20;;;46.00;42.70;;;;;;6246447;23;20431;-83
2022/06/14 09:57:06;;;;;;;4.23;2.50;;;43.30;36.60;;;;;;6247485;23;20455;-82
2022/06/14 10:00:00;;;;;;;9.23;3.40;;;40.80;32.00;;;;;;6221880;23;20408;-82
2022/06/14 10:02:41;;;;;;;6.30;2.80;;;39.20;30.50;;;;;;6220423;23;20462;-82
2022/06/14 10:05:35;;;;;;;7.80;2.40;;;39.60;34.50;;;;;;6219380;23;20430;-83
2022/06/14 10:08:13;;;;;;;6.80;3.53;;;40.80;38.30;;;;;;6219348;23;20403;-83
2022/06/14 10:10:57;;;;;;;5.27;3.43;;;42.00;42.70;;;;;;6219398;23;20378;-83
2022/06/14 10:13:48;;;;;;;7.50;3.20;;;42.00;43.60;;;;;;6220129;23;20403;-83
2022/06/14 10:16:56;;;;;;;6.37;2.70;;;41.60;42.00;;;;;;6223262;23;20462;-85
2022/06/14 10:19:53;;;;;;;5.93;3.07;;;41.80;42.40;;;;;;6250779;23;20778;-83
2022/06/14 10:22:51;;;;;;;6.83;4.37;;;41.30;42.30;;;;;;6219115;23;20411;-84
2022/06/14 10:25:30;;;;;;;6.00;2.90;;;42.10;44.30;;;;;;6246110;23;20479;-82
2022/06/14 10:28:13;;;;;;;9.90;3.50;;;42.60;46.60;;;;;;6219002;23;20422;-83
2022/06/14 10:31:29;;;;;;;6.50;3.30;;;42.90;48.10;;;;;;6219253;23;20379;-84
2022/06/14 10:34:09;;;;;;;9.50;4.00;;;42.90;47.70;;;;;;6153921;23;20403;-82
2022/06/14 10:36:46;;;;;;;5.43;3.10;;;43.10;47.90;;;;;;6129565;23;20810;-82
2022/06/14 10:39:15;;;;;;;6.83;3.07;;;43.20;48.40;;;;;;6213196;23;20391;-82
2022/06/14 10:41:50;;;;;;;8.07;3.43;;;43.70;49.60;;;;;;6218999;22;20463;-82
2022/06/14 10:44:42;;;;;;;10.13;3.90;;;43.90;49.70;;;;;;6218773;23;20374;-83
2022/06/14 10:47:19;;;;;;;9.07;3.53;;;44.20;50.40;;;;;;6218563;23;20426;-83
2022/06/14 10:50:11;;;;;;;6.53;4.03;;;44.30;54.60;;;;;;6218882;23;20372;-82
2022/06/14 10:53:07;;;;;;;7.90;3.80;;;44.60;51.70;;;;;;6218669;23;20435;-83
2022/06/14 10:55:59;;;;;;;8.10;3.90;;;44.50;51.20;;;;;;6245807;23;20353;-83
2022/06/14 10:58:36;;;;;;;6.77;4.47;;;44.70;50.80;;;;;;6218430;23;20439;-83
2022/06/14 11:01:21;;;;;;;6.80;3.90;;;43.10;47.20;;;;;;6219682;23;20921;-82
2022/06/14 11:04:14;;;;;;;8.13;3.70;;;41.90;43.50;;;;;;6247490;22;20398;-82
2022/06/14 11:06:51;;;;;;;6.70;4.00;;;41.50;42.50;;;;;;6218678;23;20713;-82
2022/06/14 11:09:46;;;;;;;6.93;3.27;;;40.50;39.80;;;;;;6247005;23;20430;-82
2022/06/14 11:12:38;;;;;;;10.30;3.50;;;40.00;39.50;;;;;;6227781;22;20392;-82
2022/06/14 11:15:10;;;;;;;8.93;3.57;;;40.30;40.90;;;;;;6245668;23;20344;-82
2022/06/14 11:17:51;;;;;;;7.30;3.87;;;40.00;40.20;;;;;;6218960;23;20415;-83
2022/06/14 11:20:22;;;;;;;9.40;4.73;;;40.10;39.70;;;;;;6248859;23;20401;-83
2022/06/14 11:23:03;;;;;;;7.23;4.00;;;40.40;42.10;;;;;;6249907;22;20386;-82
2022/06/14 11:26:09;;;;;;;7.60;3.60;;;41.00;44.10;;;;;;6249039;23;20412;-82
2022/06/14 11:29:11;;;;;;;5.13;3.60;;;41.10;44.70;;;;;;6199630;23;20399;-84
2022/06/14 11:32:03;;;;;;;10.30;3.63;;;41.50;47.00;;;;;;6143184;22;20395;-82
2022/06/14 11:34:45;;;;;;;6.83;3.70;;;41.20;44.90;;;;;;6245554;23;20697;-83
2022/06/14 11:37:39;;;;;;;6.33;4.10;;;41.20;45.50;;;;;;6219043;23;20383;-83
2022/06/14 11:40:10;;;;;;;9.77;3.30;;;40.30;42.70;;;;;;6245525;23;20681;-82
2022/06/14 11:42:56;;;;;;;6.20;4.07;;;39.40;38.90;;;;;;6219625;23;20917;-83
2022/06/14 11:45:34;;;;;;;7.30;3.43;;;39.20;38.90;;;;;;6219956;23;20482;-82
2022/06/14 11:48:14;;;;;;;6.17;3.90;;;38.40;37.60;;;;;;6247695;23;20471;-82
2022/06/14 11:50:50;;;;;;;10.23;4.40;;;38.50;38.40;;;;;;6221192;23;20379;-83
2022/06/14 11:53:27;;;;;;;10.20;4.03;;;38.10;37.80;;;;;;6247830;22;20912;-83
2022/06/14 11:56:26;;;;;;;6.00;3.30;;;38.20;38.00;;;;;;6247886;23;20384;-82
2022/06/14 11:59:20;;;;;;;11.60;4.07;;;38.40;39.90;;;;;;6178822;23;20384;-83
2022/06/14 12:02:14;;;;;;;7.33;3.80;;;38.40;40.60;;;;;;6250296;22;20402;-83
2022/06/14 12:04:45;;;;;;;8.60;3.70;;;38.60;42.50;;;;;;6222505;23;20411;-84
2022/06/14 12:07:38;;;;;;;6.33;3.40;;;38.40;42.30;;;;;;6248502;23;20391;-83
2022/06/14 12:10:28;;;;;;;5.90;3.80;;;38.00;41.40;;;;;;6249058;23;20360;-83
2022/06/14 12:13:12;;;;;;;7.87;3.33;;;38.50;42.00;;;;;;6249256;22;20752;-82
2022/06/14 12:15:52;;;;;;;8.93;3.90;;;38.80;43.90;;;;;;6222247;23;20402;-83
2022/06/14 12:18:23;;;;;;;7.77;3.37;;;38.90;44.40;;;;;;6249970;23;20355;-82
2022/06/14 12:21:24;;;;;;;6.97;3.40;;;38.80;42.60;;;;;;6223174;23;20435;-82
2022/06/14 12:23:56;;;;;;;7.17;3.50;;;38.80;42.30;;;;;;6207198;23;20910;-82
2022/06/14 12:26:39;;;;;;;4.70;3.03;;;38.70;42.50;;;;;;6250906;23;20514;-84
2022/06/14 12:29:07;;;;;;;8.60;3.63;;;39.00;43.40;;;;;;6252108;23;21009;-82
2022/06/14 12:31:51;;;;;;;5.07;3.63;;;38.60;43.10;;;;;;6225061;23;20399;-82
2022/06/14 12:34:29;;;;;;;5.10;3.57;;;38.50;43.20;;;;;;6225010;23;20392;-82
2022/06/14 12:37:05;;;;;;;7.27;3.40;;;38.30;43.70;;;;;;6251750;23;20442;-82
2022/06/14 12:39:46;;;;;;;5.33;3.33;;;37.80;42.60;;;;;;6223941;23;20391;-82
2022/06/14 12:42:21;;;;;;;10.23;5.33;;;37.80;42.50;;;;;;6250576;22;20487;-84
2022/06/14 12:44:59;;;;;;;7.13;4.10;;;36.60;40.00;;;;;;6223458;23;20441;-82
2022/06/14 12:47:36;;;;;;;7.13;3.80;;;36.30;38.30;;;;;;6252231;23;20363;-83
2022/06/14 12:50:42;;;;;;;6.73;3.10;;;36.10;37.50;;;;;;6252331;23;20850;-83
2022/06/14 12:53:24;;;;;;;9.03;3.40;;;36.00;38.80;;;;;;6160328;23;20413;-82
2022/06/14 12:56:09;;;;;;;7.13;3.20;;;36.10;39.60;;;;;;6221655;23;20391;-82
2022/06/14 12:58:49;;;;;;;6.73;3.23;;;36.40;40.00;;;;;;6254081;23;20703;-82
2022/06/14 13:01:42;;;;;;;5.77;3.10;;;36.30;40.80;;;;;;6253164;23;20819;-83
2022/06/14 13:04:22;;;;;;;8.33;3.27;;;35.80;39.20;;;;;;6253954;23;20360;-82
2022/06/14 13:07:10;;;;;;;7.43;3.43;;;35.60;40.30;;;;;;6226437;23;20380;-83
2022/06/14 13:09:51;;;;;;;7.87;3.10;;;35.50;41.20;;;;;;6226982;23;20430;-83
2022/06/14 13:12:40;;;;;;;7.73;3.50;;;34.90;38.30;;;;;;6226448;23;20426;-83
2022/06/14 13:15:28;;;;;;;9.43;5.97;;;34.90;37.90;;;;;;6226663;23;20400;-82
2022/06/14 13:18:32;;;;;;;6.20;3.80;;;34.90;38.90;;;;;;6226403;23;20406;-83
2022/06/14 13:21:08;;;;;;;6.60;3.10;;;35.00;39.60;;;;;;6254179;23;20462;-82
2022/06/14 13:23:44;;;;;;;4.37;3.13;;;34.40;38.50;;;;;;6227382;23;20395;-83
2022/06/14 13:26:26;;;;;;;11.13;4.13;;;34.20;39.20;;;;;;6226317;23;20422;-84
2022/06/14 13:29:09;;;;;;;5.10;3.33;;;33.30;36.20;;;;;;6226503;23;20394;-83
2022/06/14 13:32:01;;;;;;;8.93;2.97;;;33.20;35.70;;;;;;6226455;23;20861;-83
2022/06/14 13:34:31;;;;;;;6.77;3.20;;;33.40;37.90;;;;;;6227007;23;20384;-82
2022/06/14 13:37:15;;;;;;;5.43;2.70;;;33.60;39.90;;;;;;6226534;23;20384;-82
2022/06/14 13:39:54;;;;;;;7.03;4.07;;;33.60;39.50;;;;;;6254221;23;20360;-83
2022/06/14 13:42:36;;;;;;;6.87;3.20;;;33.70;40.30;;;;;;6253830;22;20489;-82
2022/06/14 13:45:23;;;;;;;7.47;3.50;;;33.40;41.80;;;;;;6227512;23;20415;-83
2022/06/14 13:48:06;;;;;;;7.97;3.57;;;32.90;39.90;;;;;;6252837;23;20364;-82
2022/06/14 13:50:40;;;;;;;6.13;3.80;;;32.70;39.60;;;;;;6253800;23;20367;-82
2022/06/14 13:53:15;;;;;;;6.73;3.30;;;31.70;36.60;;;;;;6252574;22;20586;-82
2022/06/14 13:55:46;;;;;;;9.80;4.00;;;31.10;35.50;;;;;;6226284;23;20705;-83
2022/06/14 13:58:30;;;;;;;6.73;3.10;;;30.90;35.90;;;;;;6224430;23;20387;-82
2022/06/14 14:01:07;;;;;;;8.27;3.37;;;30.80;37.30;;;;;;6253711;23;20799;-83
2022/06/14 14:03:42;;;;;;;7.17;3.10;;;30.70;38.20;;;;;;6225923;23;20407;-82
2022/06/14 14:06:10;;;;;;;8.50;3.60;;;30.70;39.10;;;;;;6225675;23;20383;-81